Bay Shore, New York
Current Conditions -  °F | °C
As of 9:53 PM on Wednesday 22 Oct 2014 (Local Time) from KFRG Reporting Station
Heavy Rain Heavy Rain  
Wind Chill: 52°   Ceiling: 1800
Heat Index: 52°   Visibility: 4mi
Dew Point: 48°   Wind: 17mph
Humidity: 86%   Direction: 20°NNE
Pressure: 29.72"   Gusts: 32mph
Location:  40.72°N, 73.25°W
Report Text: KFRG 230153Z 02015G28KT 4SM +RA BR BKN018 OVC027 11/09 A2972 RMK AO2 PK WND 02035/0057 SLP063 P0009 T01110089
Loading
Personal Weather Stations






























Interactive Weather Map
Tropical Storm Tracking
New forecast layout! Learn more

10-Day Weather Forecast

Advertisements
Track Severe Weather on mobile